ADDS METAR Data INFO
IDs: Format: Raw Decoded Include TAF

Data at: 1604 UTC 19 Oct 2017

KBPT 191553Z 07010KT 10SM CLR 25/16 A3017 RMK AO2 SLP216 T02500161
KBPT 191453Z 08008KT 10SM CLR 23/18 A3016 RMK AO2 SLP213 T02330178 53015
KBPT 191353Z 07006KT 10SM CLR 21/18 A3015 RMK AO2 SLP208 T02110183
KBPT 191253Z 07006KT 10SM SCT034 19/18 A3013 RMK AO2 SLP202 T01890178
KBPT 191153Z 06004KT 10SM FEW034 18/17 A3012 RMK AO2 SLP199 T01780167 10189 20156 53008
KBPT 191053Z 07003KT 10SM FEW034 18/17 A3011 RMK AO2 SLP197 T01780172
KBPT 190953Z AUTO 07004KT 10SM SCT033 19/18 A3010 RMK AO2 SLP192 T01890178
KBPT 190853Z AUTO 07005KT 10SM FEW033 19/18 A3010 RMK AO2 SLP191 T01890178 56006
KBPT 190753Z AUTO 00000KT 9SM CLR 16/16 A3010 RMK AO2 SLP194 T01560156
KBPT 190653Z AUTO 00000KT 10SM CLR 16/16 A3010 RMK AO2 SLP193 T01560156
KBPT 190553Z AUTO 00000KT 10SM CLR 16/15 A3012 RMK AO2 SLP198 T01610150 10206 20156 402780117 58007
KBPT 190453Z AUTO 00000KT 10SM CLR 16/16 A3013 RMK AO2 SLP203 T01610156
KBPT 190353Z AUTO 00000KT 8SM CLR 17/16 A3014 RMK AO2 SLP204 T01670156
KBPT 190253Z AUTO 00000KT 10SM CLR 17/16 A3014 RMK AO2 SLP205 T01670161 51011
KBPT 190153Z 00000KT 10SM CLR 17/16 A3013 RMK AO2 SLP203 T01720156
KBPT 190053Z AUTO 14003KT 10SM CLR 19/16 A3013 RMK AO2 SLP202 T01890161
KBPT 182353Z 14004KT 10SM CLR 21/16 A3011 RMK AO2 SLP194 T02060156 10278 20200 55000
KBPT 182253Z 12006KT 10SM CLR 25/14 A3010 RMK AO2 SLP192 T02500139
KBPT 182153Z 12008KT 10SM CLR 26/14 A3010 RMK AO2 SLP191 T02610139
KBPT 182053Z 14004KT 10SM CLR 27/15 A3011 RMK AO2 SLP194 T02670150 56020
KBPT 181953Z VRB03KT 10SM CLR 27/16 A3012 RMK AO2 SLP198 T02670156
KBPT 181853Z 04004KT 10SM CLR 27/16 A3014 RMK AO2 SLP204 T02670156
KBPT 181753Z 11005KT 10SM CLR 26/17 A3017 RMK AO2 SLP214 T02560167 10256 20133 58005
KBPT 181653Z 13005KT 10SM CLR 25/16 A3018 RMK AO2 SLP219 T02500161
KBPT 181553Z 08008KT 10SM CLR 24/16 A3018 RMK AO2 SLP219 T02440156
KBPT 181453Z 08006KT 10SM CLR 22/14 A3018 RMK AO2 SLP219 T02170144 53014
KBPT 181353Z 05005KT 10SM CLR 19/14 A3017 RMK AO2 SLP215 T01890144
KBPT 181253Z 02004KT 10SM CLR 14/12 A3015 RMK AO2 SLP208 T01440122
KBPT 181153Z 04005KT 10SM CLR 14/12 A3014 RMK AO2 SLP205 T01390117 10139 20117 55000
KBPT 181053Z 02003KT 10SM CLR 13/11 A3013 RMK AO2 SLP203 T01330111
KBPT 180953Z AUTO 00000KT 10SM CLR 13/11 A3013 RMK AO2 SLP203 T01280111
KBPT 180853Z AUTO 02003KT 10SM CLR 13/11 A3014 RMK AO2 SLP205 T01280106 58005
KBPT 180753Z AUTO 36004KT 10SM CLR 13/11 A3015 RMK AO2 SLP208 T01280106
KBPT 180653Z AUTO 35003KT 10SM CLR 12/10 A3015 RMK AO2 SLP209 T01170100
KBPT 180553Z AUTO 36004KT 10SM CLR 12/11 A3015 RMK AO2 SLP210 T01220111 10194 20117 402560094 58004
KBPT 180453Z AUTO 00000KT 10SM CLR 12/11 A3016 RMK AO2 SLP214 T01220106